Time;durP1;ratioP1;P1;durP2;ratioP2;P2;SDS_P1;SDS_P2;PMS_P1;PMS_P2;Temp;Humidity;BMP_temperature;BMP_pressure;BME280_temperature;BME280_humidity;BME280_pressure;Samples;Min_cycle;Max_cycle;Signal;HPM_P1;HPM_P2
2022/05/01 00:02:05;;;;;;;39.70;24.40;;;;;;;6.20;49.42;100791.18;130368;1267;108653;-74
2022/05/01 00:05:11;;;;;;;40.40;24.20;;;;;;;6.20;49.59;100785.89;130326;1267;108860;-76
2022/05/01 00:08:16;;;;;;;40.20;24.40;;;;;;;6.21;49.67;100785.98;130364;1267;107548;-77
2022/05/01 00:11:23;;;;;;;38.30;23.80;;;;;;;6.23;49.75;100781.45;130386;1266;108885;-76
2022/05/01 00:14:29;;;;;;;41.90;24.40;;;;;;;6.23;49.81;100779.50;130830;1267;108890;-76
2022/05/01 00:17:34;;;;;;;41.40;24.00;;;;;;;6.22;49.76;100778.10;130956;1267;108737;-76
2022/05/01 00:20:40;;;;;;;37.80;23.00;;;;;;;6.21;49.79;100779.77;130365;1266;107628;-77
2022/05/01 00:23:46;;;;;;;38.00;23.20;;;;;;;6.16;49.80;100780.73;130362;1266;108950;-78
2022/05/01 00:26:51;;;;;;;35.10;23.40;;;;;;;6.06;49.95;100781.12;130303;1267;108711;-79
2022/05/01 00:29:57;;;;;;;35.80;22.90;;;;;;;6.02;50.22;100783.86;130305;1267;108784;-78
2022/05/01 00:36:26;;;;;;;42.60;26.70;;;;;;;6.05;50.45;100785.95;130336;1267;108992;-77
2022/05/01 00:39:32;;;;;;;41.30;24.60;;;;;;;6.05;50.53;100779.21;130288;1267;108628;-77
2022/05/01 00:42:37;;;;;;;37.80;24.00;;;;;;;6.01;50.62;100782.49;130363;1267;108825;-77
2022/05/01 00:45:42;;;;;;;37.30;23.80;;;;;;;5.96;50.95;100778.94;130371;1267;108924;-77
2022/05/01 00:48:48;;;;;;;38.20;23.20;;;;;;;5.94;50.83;100779.10;130385;1267;108709;-77
2022/05/01 00:51:55;;;;;;;35.80;23.00;;;;;;;5.89;50.94;100776.79;130345;1267;108664;-77
2022/05/01 00:55:01;;;;;;;34.30;22.70;;;;;;;5.87;50.96;100775.89;130339;1266;108975;-77
2022/05/01 00:58:08;;;;;;;36.80;23.40;;;;;;;5.85;50.92;100772.98;130404;1267;108990;-76
2022/05/01 01:01:15;;;;;;;34.50;22.20;;;;;;;5.85;51.15;100772.80;130363;1267;108938;-77
2022/05/01 01:04:22;;;;;;;34.40;22.20;;;;;;;5.82;51.04;100771.25;130416;1267;108705;-77
2022/05/01 01:07:28;;;;;;;36.30;20.30;;;;;;;5.80;51.24;100771.64;130342;1267;108531;-76
2022/05/01 01:10:33;;;;;;;34.70;21.50;;;;;;;5.75;51.27;100771.10;130356;1267;108977;-78
2022/05/01 01:13:38;;;;;;;34.20;21.20;;;;;;;5.68;51.35;100774.39;130419;1267;108692;-75
2022/05/01 01:16:44;;;;;;;33.40;21.30;;;;;;;5.61;51.26;100771.69;130410;1267;108749;-76
2022/05/01 01:19:50;;;;;;;34.70;21.30;;;;;;;5.56;51.32;100771.89;130377;1267;108863;-76
2022/05/01 01:22:57;;;;;;;34.20;21.70;;;;;;;5.44;51.45;100767.40;130389;1267;108986;-76
2022/05/01 01:26:04;;;;;;;34.40;21.00;;;;;;;5.37;51.53;100770.41;130389;1266;107725;-77
2022/05/01 01:32:39;;;;;;;33.20;20.80;;;;;;;5.28;51.74;100776.11;130459;1267;108704;-79
2022/05/01 01:35:47;;;;;;;33.40;20.30;;;;;;;5.22;51.82;100773.89;130582;1267;108810;-77
2022/05/01 01:38:53;;;;;;;30.40;19.50;;;;;;;5.20;51.79;100771.92;130381;1267;109108;-73
2022/05/01 01:42:01;;;;;;;34.30;20.60;;;;;;;5.16;51.85;100766.57;130346;1267;108643;-78
2022/05/01 01:45:09;;;;;;;32.90;20.00;;;;;;;5.11;51.86;100767.27;130364;1267;107960;-78
2022/05/01 01:48:16;;;;;;;34.70;20.30;;;;;;;5.07;52.03;100765.59;130402;1267;108746;-77
2022/05/01 01:51:22;;;;;;;32.20;20.10;;;;;;;5.04;51.93;100763.98;130374;1267;108960;-74
2022/05/01 01:54:28;;;;;;;35.70;21.10;;;;;;;5.02;51.86;100763.48;130349;1267;108770;-76
2022/05/01 01:57:33;;;;;;;30.80;20.10;;;;;;;4.98;51.92;100757.38;130341;1267;108714;-75
2022/05/01 02:00:38;;;;;;;30.00;19.10;;;;;;;4.93;51.93;100760.54;130372;1266;108779;-75
2022/05/01 02:03:44;;;;;;;28.10;18.90;;;;;;;4.87;52.11;100761.99;130339;1267;109269;-76
2022/05/01 02:06:49;;;;;;;30.30;18.60;;;;;;;4.82;52.15;100763.73;130341;1267;107675;-76
2022/05/01 02:09:55;;;;;;;29.10;19.00;;;;;;;4.73;52.17;100762.62;130397;1267;108778;-76
2022/05/01 02:13:01;;;;;;;31.90;19.60;;;;;;;4.68;52.29;100763.27;130351;1267;109355;-77
2022/05/01 02:16:06;;;;;;;29.20;18.40;;;;;;;4.63;52.29;100760.41;130379;1267;108668;-77
2022/05/01 02:19:12;;;;;;;30.50;19.40;;;;;;;4.60;52.42;100758.50;130377;1266;108786;-76
2022/05/01 02:22:20;;;;;;;30.10;18.80;;;;;;;4.59;52.43;100760.17;130554;1267;108843;-76
2022/05/01 02:25:28;;;;;;;30.80;19.20;;;;;;;4.55;52.56;100757.09;130562;1267;108879;-76
2022/05/01 02:28:33;;;;;;;29.50;18.80;;;;;;;4.51;52.49;100758.02;130417;1267;108669;-80
2022/05/01 02:31:41;;;;;;;26.90;17.90;;;;;;;4.46;52.46;100759.98;130415;1267;108923;-80
2022/05/01 02:34:46;;;;;;;28.80;17.40;;;;;;;4.41;52.56;100758.20;130379;1267;108625;-79
2022/05/01 02:37:52;;;;;;;29.00;18.00;;;;;;;4.36;52.60;100755.73;130508;1267;109548;-80
2022/05/01 02:40:57;;;;;;;29.00;17.70;;;;;;;4.31;52.69;100752.84;130455;1267;109022;-80
2022/05/01 02:44:03;;;;;;;28.80;17.80;;;;;;;4.29;52.76;100749.83;131149;1267;108813;-75
2022/05/01 02:47:09;;;;;;;27.10;17.20;;;;;;;4.27;52.93;100746.94;130750;1267;107767;-76
2022/05/01 02:50:14;;;;;;;28.10;17.30;;;;;;;4.24;53.01;100744.66;130977;1267;108491;-76
2022/05/01 02:53:20;;;;;;;26.90;16.60;;;;;;;4.20;52.95;100744.58;130562;1267;108948;-72
2022/05/01 02:56:27;;;;;;;26.80;17.80;;;;;;;4.15;53.11;100746.50;130353;1267;108720;-75
2022/05/01 02:59:32;;;;;;;27.40;17.70;;;;;;;4.12;52.93;100744.58;130246;1267;108697;-75
2022/05/01 03:02:38;;;;;;;26.40;17.20;;;;;;;4.11;53.24;100743.23;130364;1267;108785;-76
2022/05/01 03:05:43;;;;;;;26.00;17.40;;;;;;;4.09;53.10;100746.70;130328;1266;108741;-75
2022/05/01 03:08:49;;;;;;;26.80;17.10;;;;;;;4.07;53.16;100748.63;130371;1267;108723;-76
2022/05/01 03:11:54;;;;;;;24.00;16.20;;;;;;;4.06;53.33;100744.63;130377;1267;107663;-76
2022/05/01 03:14:59;;;;;;;26.10;16.70;;;;;;;4.04;53.26;100737.73;130365;1267;108831;-75
2022/05/01 03:24:51;;;;;;;25.70;16.30;;;;;;;4.04;53.42;100744.03;130542;1266;108785;-79
2022/05/01 03:27:57;;;;;;;24.40;15.50;;;;;;;4.03;53.43;100745.02;130875;1266;108841;-77
2022/05/01 03:31:08;;;;;;;25.90;16.60;;;;;;;4.00;53.46;100742.36;131148;1267;108710;-79
2022/05/01 03:34:14;;;;;;;26.90;17.40;;;;;;;4.03;53.76;100742.71;131100;1267;107983;-79
2022/05/01 03:37:20;;;;;;;23.80;15.70;;;;;;;4.08;53.70;100744.13;130940;1267;108027;-78
2022/05/01 03:40:25;;;;;;;23.40;16.30;;;;;;;4.11;53.74;100737.25;130936;1267;108844;-79
2022/05/01 03:43:31;;;;;;;25.00;16.30;;;;;;;4.15;54.03;100742.80;130462;1267;108689;-79
2022/05/01 03:46:38;;;;;;;28.00;18.40;;;;;;;4.18;53.95;100743.70;130450;1267;108644;-78
2022/05/01 03:49:44;;;;;;;24.30;16.60;;;;;;;4.22;53.82;100745.86;130414;1267;108755;-79
2022/05/01 03:52:49;;;;;;;23.20;16.40;;;;;;;4.29;53.77;100745.05;130451;1266;108738;-76
2022/05/01 03:55:55;;;;;;;26.40;17.00;;;;;;;4.43;54.01;100746.27;130381;1267;109469;-76
2022/05/01 03:59:04;;;;;;;23.00;15.70;;;;;;;4.60;53.98;100743.52;130377;1267;108532;-77
2022/05/01 04:02:09;;;;;;;24.70;15.70;;;;;;;4.82;53.98;100746.45;130253;1266;107693;-78
2022/05/01 04:05:16;;;;;;;24.40;16.30;;;;;;;4.98;53.95;100744.33;130407;1267;108948;-77
2022/05/01 04:08:21;;;;;;;24.50;16.60;;;;;;;5.05;53.90;100745.06;130359;1267;107225;-79
2022/05/01 04:11:27;;;;;;;22.00;14.90;;;;;;;5.18;54.00;100748.59;130366;1267;108709;-79
2022/05/01 04:14:33;;;;;;;21.60;14.70;;;;;;;5.29;53.98;100752.94;130346;1266;108842;-79
2022/05/01 04:17:40;;;;;;;21.20;14.50;;;;;;;5.44;54.09;100747.70;130476;1267;108925;-78
2022/05/01 04:20:46;;;;;;;20.10;14.10;;;;;;;5.62;54.15;100750.95;130385;1267;108854;-79
2022/05/01 04:23:52;;;;;;;21.40;14.10;;;;;;;5.83;54.33;100750.40;130378;1267;108754;-78
2022/05/01 04:26:57;;;;;;;22.40;14.60;;;;;;;6.02;54.11;100752.40;130330;1267;108627;-78
2022/05/01 04:30:03;;;;;;;21.90;14.50;;;;;;;6.21;54.31;100751.71;130390;1267;108798;-79
2022/05/01 04:33:13;;;;;;;20.30;14.50;;;;;;;6.43;54.49;100749.58;130433;1267;108895;-77
2022/05/01 04:36:18;;;;;;;18.20;13.40;;;;;;;6.64;54.27;100747.98;130393;1267;108751;-78
2022/05/01 04:39:23;;;;;;;23.20;14.50;;;;;;;6.85;54.46;100751.55;130384;1266;108862;-76
2022/05/01 04:42:29;;;;;;;24.90;15.00;;;;;;;7.10;54.62;100743.27;130470;1267;108692;-73
2022/05/01 04:45:35;;;;;;;27.80;17.20;;;;;;;7.32;54.60;100749.30;130390;1264;108899;-73
2022/05/01 04:48:41;;;;;;;26.30;16.30;;;;;;;7.56;54.70;100747.27;130405;1266;108765;-77
2022/05/01 04:51:47;;;;;;;24.60;16.70;;;;;;;7.81;54.75;100743.40;130448;1267;108647;-75
2022/05/01 04:54:53;;;;;;;30.00;18.10;;;;;;;8.04;54.85;100746.33;130512;1267;108910;-74
2022/05/01 04:57:59;;;;;;;26.70;17.10;;;;;;;8.28;54.86;100745.98;130451;1267;108093;-73
2022/05/01 05:01:04;;;;;;;29.10;17.80;;;;;;;8.49;54.73;100743.71;130178;1268;108861;-76
2022/05/01 05:04:10;;;;;;;33.30;19.70;;;;;;;8.69;54.95;100743.49;130363;1267;108807;-76
2022/05/01 05:07:15;;;;;;;36.70;20.80;;;;;;;8.85;55.01;100740.71;130333;1267;108917;-76
2022/05/01 05:10:20;;;;;;;34.90;20.50;;;;;;;9.02;55.33;100741.20;130410;1267;108857;-76
2022/05/01 05:13:27;;;;;;;38.40;23.00;;;;;;;9.24;55.44;100739.35;130447;1267;108634;-76
2022/05/01 05:16:33;;;;;;;33.20;21.60;;;;;;;9.45;55.22;100736.95;130362;1267;107708;-75
2022/05/01 05:19:39;;;;;;;38.50;23.30;;;;;;;9.65;55.35;100742.50;130344;1267;108846;-74
2022/05/01 05:22:44;;;;;;;39.10;25.20;;;;;;;9.84;55.03;100743.86;130362;1267;108759;-77
2022/05/01 05:25:50;;;;;;;46.60;28.50;;;;;;;10.03;54.99;100749.45;130428;1267;108818;-81
2022/05/01 05:28:56;;;;;;;40.90;27.50;;;;;;;10.15;54.96;100753.73;130475;1267;109246;-78
2022/05/01 05:32:01;;;;;;;39.30;26.30;;;;;;;10.31;54.88;100754.11;130421;1267;107365;-78
2022/05/01 05:35:08;;;;;;;39.40;26.90;;;;;;;10.49;54.65;100754.58;130546;1267;108860;-79
2022/05/01 05:38:14;;;;;;;40.10;27.80;;;;;;;10.65;54.41;100756.48;130662;1267;108967;-78
2022/05/01 05:41:19;;;;;;;40.40;26.80;;;;;;;10.83;54.17;100755.23;130409;1267;108825;-78
2022/05/01 05:44:25;;;;;;;41.70;28.40;;;;;;;10.94;53.83;100753.23;130354;1267;107555;-80
2022/05/01 05:47:30;;;;;;;41.80;27.50;;;;;;;11.01;53.88;100752.28;130437;1267;108712;-77
2022/05/01 05:50:36;;;;;;;55.60;34.30;;;;;;;11.08;53.58;100756.29;130347;1267;108766;-75
2022/05/01 05:53:41;;;;;;;65.00;37.80;;;;;;;11.21;53.85;100753.08;130365;1267;108838;-76
2022/05/01 05:56:47;;;;;;;72.40;41.30;;;;;;;11.33;53.71;100751.41;130400;1267;107930;-76
2022/05/01 05:59:52;;;;;;;66.30;39.00;;;;;;;11.40;53.89;100751.27;130365;1267;108951;-77
2022/05/01 06:02:57;;;;;;;68.60;39.70;;;;;;;11.52;53.65;100753.52;130424;1267;108985;-76
2022/05/01 06:06:03;;;;;;;53.90;33.20;;;;;;;11.63;53.50;100754.54;130445;1267;107681;-79
2022/05/01 06:09:09;;;;;;;46.80;31.50;;;;;;;11.78;53.24;100754.42;130502;1267;108748;-80
2022/05/01 06:12:15;;;;;;;42.50;27.40;;;;;;;11.92;53.15;100758.62;130457;1267;108731;-79
2022/05/01 06:15:20;;;;;;;41.30;28.10;;;;;;;12.06;53.06;100759.23;130672;1266;107636;-77
2022/05/01 06:18:26;;;;;;;39.30;26.70;;;;;;;12.19;52.75;100760.24;130358;1267;108852;-77
2022/05/01 06:21:31;;;;;;;35.30;23.90;;;;;;;12.32;52.53;100759.30;130579;1267;108955;-80
2022/05/01 06:24:36;;;;;;;37.10;25.90;;;;;;;12.44;52.44;100757.48;130442;1267;108825;-80
2022/05/01 06:27:42;;;;;;;37.90;25.40;;;;;;;12.52;52.05;100756.44;130428;1267;108689;-80
2022/05/01 06:30:49;;;;;;;29.90;21.50;;;;;;;12.61;52.16;100758.46;130397;1267;108995;-79
2022/05/01 06:33:55;;;;;;;32.10;20.50;;;;;;;12.75;52.12;100756.11;130699;1267;107663;-79
2022/05/01 06:37:00;;;;;;;29.30;20.80;;;;;;;12.92;52.12;100755.29;130482;1267;108657;-80
2022/05/01 06:40:07;;;;;;;32.80;21.00;;;;;;;13.07;51.70;100755.73;130359;1267;108130;-80
2022/05/01 06:43:14;;;;;;;27.00;20.10;;;;;;;13.16;51.39;100749.30;130461;1267;108871;-82
2022/05/01 06:46:19;;;;;;;24.80;17.10;;;;;;;13.28;51.25;100756.92;130547;1267;108749;-77
2022/05/01 06:49:25;;;;;;;20.80;15.00;;;;;;;13.43;50.99;100753.04;130362;1267;108715;-78
2022/05/01 06:52:31;;;;;;;22.60;15.70;;;;;;;13.58;50.86;100754.63;130412;1267;108795;-81
2022/05/01 06:55:36;;;;;;;18.60;14.10;;;;;;;13.72;50.78;100753.10;130344;1267;108660;-79
2022/05/01 06:58:42;;;;;;;20.30;13.70;;;;;;;13.89;50.65;100754.04;130399;1267;108646;-79
2022/05/01 07:01:48;;;;;;;19.30;13.40;;;;;;;14.06;50.74;100754.86;130629;1267;108678;-80
2022/05/01 07:04:53;;;;;;;18.00;13.80;;;;;;;14.26;50.43;100758.88;130558;1267;108725;-79
2022/05/01 07:07:59;;;;;;;17.00;12.60;;;;;;;14.45;49.72;100762.39;130711;1267;107796;-80
2022/05/01 07:11:04;;;;;;;16.40;11.80;;;;;;;14.56;47.93;100766.08;130509;1267;108930;-79
2022/05/01 07:14:09;;;;;;;16.90;11.00;;;;;;;14.64;48.66;100762.34;130558;1267;108692;-81
2022/05/01 07:17:15;;;;;;;15.70;11.50;;;;;;;14.83;49.10;100765.02;130572;1267;108675;-79
2022/05/01 07:20:20;;;;;;;15.70;11.30;;;;;;;15.05;48.82;100763.03;130499;1267;108937;-80
2022/05/01 07:23:26;;;;;;;12.50;9.90;;;;;;;15.24;47.91;100762.90;130459;1267;108716;-78
2022/05/01 07:26:33;;;;;;;14.10;9.90;;;;;;;15.40;48.05;100760.09;130719;1267;108785;-79
2022/05/01 07:29:39;;;;;;;11.60;8.90;;;;;;;15.56;47.83;100759.66;130458;1267;108979;-75
2022/05/01 07:32:44;;;;;;;10.70;8.50;;;;;;;15.71;47.86;100757.93;130383;1267;108773;-74
2022/05/01 07:35:49;;;;;;;12.10;9.70;;;;;;;15.91;47.98;100757.35;130362;1267;106704;-76
2022/05/01 07:38:55;;;;;;;12.60;9.40;;;;;;;16.12;48.07;100754.74;130502;1267;108694;-79
2022/05/01 07:42:01;;;;;;;13.60;9.70;;;;;;;16.29;47.09;100754.20;130526;1267;108139;-77
2022/05/01 07:45:08;;;;;;;12.20;9.00;;;;;;;16.39;46.88;100752.73;130494;1267;108841;-81
2022/05/01 07:48:14;;;;;;;10.60;8.00;;;;;;;16.53;46.31;100749.96;130504;1267;108656;-83
2022/05/01 07:51:20;;;;;;;12.30;8.50;;;;;;;16.71;46.34;100747.23;130454;1267;108533;-78
2022/05/01 07:54:25;;;;;;;12.70;9.10;;;;;;;16.83;45.98;100747.96;130320;1267;108651;-79
2022/05/01 07:57:31;;;;;;;11.00;8.30;;;;;;;16.96;45.95;100751.59;130366;1267;108914;-78
2022/05/01 08:00:36;;;;;;;10.70;7.80;;;;;;;17.10;45.28;100744.92;130462;1267;107580;-77
2022/05/01 08:07:08;;;;;;;9.60;6.60;;;;;;;17.42;45.60;100735.48;130448;1267;108261;-77
2022/05/01 08:10:13;;;;;;;9.60;6.80;;;;;;;17.60;45.20;100736.88;130829;1267;108753;-77
2022/05/01 08:13:19;;;;;;;8.30;6.00;;;;;;;17.76;45.07;100735.67;130702;1266;108597;-84
2022/05/01 08:16:25;;;;;;;8.00;6.20;;;;;;;17.81;42.36;100736.29;130553;1266;108883;-78
2022/05/01 08:22:54;;;;;;;6.80;5.50;;;;;;;17.77;43.21;100732.91;130494;1267;107746;-81
2022/05/01 08:26:03;;;;;;;7.20;4.80;;;;;;;17.83;43.44;100730.17;130544;1267;109003;-79
2022/05/01 08:29:09;;;;;;;8.60;6.30;;;;;;;17.90;42.88;100725.94;130681;1267;108796;-79
2022/05/01 08:32:15;;;;;;;7.10;5.60;;;;;;;17.89;41.89;100729.34;130564;1267;108760;-76
2022/05/01 08:35:22;;;;;;;8.50;5.80;;;;;;;17.81;41.98;100726.64;130370;1267;108685;-80
2022/05/01 08:38:28;;;;;;;7.60;6.00;;;;;;;17.78;41.50;100726.64;130589;1267;108770;-82
2022/05/01 08:41:34;;;;;;;6.60;5.20;;;;;;;17.75;41.83;100720.58;131342;1267;108910;-88
2022/05/01 08:44:40;;;;;;;9.60;5.80;;;;;;;17.77;41.97;100725.71;130675;1267;109626;-85
2022/05/01 08:47:56;;;;;;;7.10;5.70;;;;;;;17.76;40.87;100726.53;130701;1267;106838;-82
2022/05/01 08:51:04;;;;;;;8.80;6.00;;;;;;;17.71;41.29;100725.19;130792;1267;108945;-83
2022/05/01 08:54:12;;;;;;;7.10;5.20;;;;;;;17.67;41.34;100720.41;130623;1267;108811;-89
2022/05/01 08:57:21;;;;;;;11.20;6.30;;;;;;;17.76;42.12;100721.91;130454;1268;107737;-84
2022/05/01 09:00:28;;;;;;;8.50;5.30;;;;;;;17.68;40.14;100721.98;130578;1267;108668;-80
2022/05/01 09:03:34;;;;;;;8.20;5.30;;;;;;;17.60;43.31;100715.73;130581;1267;108932;-76
2022/05/01 09:06:41;;;;;;;12.70;6.60;;;;;;;17.88;41.92;100716.57;130393;1267;108653;-75
2022/05/01 09:09:46;;;;;;;9.40;5.90;;;;;;;17.85;40.72;100717.87;130531;1267;108968;-79
2022/05/01 09:12:55;;;;;;;8.20;6.20;;;;;;;17.93;42.91;100710.73;130359;1266;108455;-79
2022/05/01 09:16:13;;;;;;;10.70;6.70;;;;;;;18.03;40.44;100706.65;130373;1266;108666;-80
2022/05/01 09:19:31;;;;;;;10.80;6.50;;;;;;;17.89;40.09;100706.20;130434;1267;108659;-80
2022/05/01 09:22:51;;;;;;;9.70;6.10;;;;;;;17.58;38.84;100706.95;130332;1267;108646;-80
2022/05/01 09:26:02;;;;;;;8.70;5.90;;;;;;;17.37;39.66;100710.42;130399;1267;109167;-80
2022/05/01 09:29:07;;;;;;;8.60;6.60;;;;;;;17.41;41.03;100706.52;130395;1267;108643;-79
2022/05/01 09:32:13;;;;;;;9.40;6.90;;;;;;;17.39;40.08;100699.77;130374;1267;107274;-79
2022/05/01 09:35:32;;;;;;;8.20;5.90;;;;;;;17.41;42.49;100692.46;130417;1266;108703;-81
2022/05/01 09:38:37;;;;;;;6.90;4.90;;;;;;;17.58;42.04;100692.36;130501;1266;108807;-80
2022/05/01 09:41:43;;;;;;;8.30;5.30;;;;;;;17.50;39.74;100693.77;130441;1267;108524;-77
2022/05/01 09:45:06;;;;;;;8.70;5.20;;;;;;;17.40;39.74;100691.00;130402;1267;108748;-78
2022/05/01 09:48:22;;;;;;;6.10;4.60;;;;;;;17.17;38.01;100689.83;130393;1266;108767;-77
2022/05/01 09:51:28;;;;;;;7.50;4.30;;;;;;;16.97;39.50;100687.39;130402;1268;108771;-79
2022/05/01 09:54:34;;;;;;;8.60;4.50;;;;;;;16.99;39.80;100688.05;130598;1268;108939;-80
2022/05/01 09:57:39;;;;;;;4.80;3.90;;;;;;;17.03;39.02;100685.20;130509;1266;108735;-79
2022/05/01 10:00:47;;;;;;;6.80;4.20;;;;;;;16.92;36.32;100682.35;130501;1267;108732;-81
2022/05/01 10:03:53;;;;;;;4.60;3.80;;;;;;;16.84;39.08;100678.84;130588;1267;108548;-79
2022/05/01 10:07:01;;;;;;;4.50;3.40;;;;;;;16.91;37.58;100676.94;130508;1268;108947;-79
2022/05/01 10:10:09;;;;;;;5.00;3.60;;;;;;;16.95;37.65;100678.66;130684;1267;108861;-80
2022/05/01 10:13:15;;;;;;;4.90;3.60;;;;;;;16.98;38.57;100677.21;130514;1267;108700;-76
2022/05/01 10:16:20;;;;;;;5.30;4.00;;;;;;;17.12;40.33;100671.85;130382;1270;108533;-79
2022/05/01 10:19:26;;;;;;;6.30;3.80;;;;;;;17.28;38.90;100668.55;130382;1268;108886;-78
2022/05/01 10:22:34;;;;;;;5.00;3.80;;;;;;;17.31;37.14;100669.59;130445;1267;108757;-80
2022/05/01 10:25:46;;;;;;;5.00;3.40;;;;;;;17.18;37.03;100666.51;130420;1267;108951;-78
2022/05/01 10:29:20;;;;;;;4.90;3.70;;;;;;;17.12;37.08;100666.31;130448;1267;108743;-77
2022/05/01 10:32:42;;;;;;;4.60;3.50;;;;;;;17.11;36.89;100654.42;130477;1268;108900;-79
2022/05/01 10:36:00;;;;;;;8.40;4.10;;;;;;;17.15;36.54;100661.65;130597;1268;108723;-79
2022/05/01 10:39:10;;;;;;;5.50;3.70;;;;;;;17.14;37.14;100656.58;130556;1268;108785;-79
2022/05/01 10:42:34;;;;;;;6.90;4.00;;;;;;;17.13;37.23;100653.65;130406;1268;108836;-80
2022/05/01 10:45:46;;;;;;;5.80;4.00;;;;;;;17.16;37.29;100648.06;130422;1268;108421;-81
2022/05/01 10:48:52;;;;;;;4.80;3.60;;;;;;;17.21;36.95;100646.88;130586;1268;108678;-82
2022/05/01 10:52:16;;;;;;;6.40;3.70;;;;;;;17.22;37.04;100641.75;130593;1268;108920;-83
2022/05/01 10:55:22;;;;;;;5.70;3.20;;;;;;;17.26;37.19;100645.20;130554;1268;108959;-80
2022/05/01 10:58:30;;;;;;;5.40;3.60;;;;;;;17.31;37.13;100641.08;130694;1267;108898;-82
2022/05/01 11:01:55;;;;;;;3.90;3.40;;;;;;;17.34;36.97;100638.67;130473;1268;108818;-81
2022/05/01 11:05:01;;;;;;;6.50;3.40;;;;;;;17.38;36.77;100632.77;130237;1268;107692;-81
2022/05/01 11:08:13;;;;;;;5.70;3.00;;;;;;;17.43;37.01;100632.55;130403;1269;108721;-80
2022/05/01 11:11:20;;;;;;;4.60;3.20;;;;;;;17.49;36.66;100631.50;130493;1268;108869;-76
2022/05/01 11:14:36;;;;;;;4.50;3.00;;;;;;;17.52;36.42;100631.79;130451;1268;108874;-76
2022/05/01 11:17:56;;;;;;;4.30;3.10;;;;;;;17.53;36.29;100633.29;130433;1268;108683;-76
2022/05/01 11:21:37;;;;;;;6.10;3.30;;;;;;;17.55;36.63;100633.22;130576;1266;108983;-80
2022/05/01 11:24:46;;;;;;;4.90;3.10;;;;;;;17.67;36.53;100631.39;130664;1268;108830;-76
2022/05/01 11:27:53;;;;;;;3.80;2.60;;;;;;;17.78;36.52;100627.64;130639;1266;109042;-76
2022/05/01 11:30:58;;;;;;;5.10;3.10;;;;;;;17.92;36.66;100621.34;130650;1268;108767;-76
2022/05/01 11:34:44;;;;;;;3.60;3.00;;;;;;;17.99;35.47;100621.31;130472;1268;107725;-76
2022/05/01 11:38:06;;;;;;;5.70;3.20;;;;;;;17.98;34.24;100619.04;130436;1268;108820;-75
2022/05/01 11:41:11;;;;;;;4.60;3.00;;;;;;;17.96;34.02;100610.53;130538;1268;108770;-77
2022/05/01 11:44:24;;;;;;;3.50;2.90;;;;;;;17.90;34.12;100603.58;130462;1268;108750;-81
2022/05/01 11:47:33;;;;;;;5.00;3.50;;;;;;;17.96;35.45;100606.22;130669;1267;108891;-81
2022/05/01 11:50:41;;;;;;;6.40;3.60;;;;;;;18.08;35.72;100606.16;130582;1267;108232;-77
2022/05/01 11:53:49;;;;;;;4.90;2.90;;;;;;;18.19;36.20;100603.31;130478;1267;108877;-78
2022/05/01 12:03:46;;;;;;;4.60;2.90;;;;;;;18.03;35.42;100596.70;130561;1268;108728;-86
2022/05/01 12:06:59;;;;;;;4.90;3.20;;;;;;;17.93;35.06;100596.92;130580;1268;109386;-87
2022/05/01 12:10:05;;;;;;;3.80;2.60;;;;;;;17.82;35.12;100597.67;130675;1267;108912;-85
2022/05/01 12:13:22;;;;;;;3.80;2.70;;;;;;;17.73;35.15;100597.60;130640;1268;108912;-86
2022/05/01 12:16:28;;;;;;;5.50;2.80;;;;;;;17.73;34.86;100598.86;130497;1268;108761;-86
2022/05/01 12:19:38;;;;;;;3.90;2.90;;;;;;;17.82;34.97;100591.86;130436;1267;108971;-86
2022/05/01 12:22:43;;;;;;;4.50;2.60;;;;;;;17.92;35.14;100591.77;130509;1267;108789;-85
2022/05/01 12:25:51;;;;;;;5.20;3.20;;;;;;;18.03;35.01;100589.46;130482;1267;108741;-87
2022/05/01 12:28:56;;;;;;;3.80;2.60;;;;;;;18.14;34.99;100582.70;130577;1268;108635;-87
2022/05/01 12:32:10;;;;;;;3.20;2.70;;;;;;;18.24;34.98;100574.92;130506;1267;108535;-87
2022/05/01 12:35:15;;;;;;;4.40;2.40;;;;;;;18.33;34.82;100570.98;130453;1268;108755;-87
2022/05/01 12:38:21;;;;;;;3.50;2.30;;;;;;;18.37;33.72;100569.84;130516;1268;108914;-87
2022/05/01 12:45:11;;;;;;;4.30;2.90;;;;;;;18.08;33.37;100570.64;130487;1267;108644;-87
2022/05/01 12:48:18;;;;;;;4.10;2.80;;;;;;;18.07;33.18;100566.65;130536;1266;108905;-87
2022/05/01 12:51:24;;;;;;;4.30;2.70;;;;;;;18.17;33.26;100562.70;130489;1268;108693;-85
2022/05/01 12:54:30;;;;;;;3.60;2.50;;;;;;;18.31;33.97;100556.41;130576;1267;108840;-86
2022/05/01 12:57:36;;;;;;;4.10;2.80;;;;;;;18.40;32.76;100551.73;130582;1266;107714;-85
2022/05/01 13:00:45;;;;;;;3.70;3.00;;;;;;;18.47;32.98;100553.27;130592;1267;108773;-86
2022/05/01 13:03:51;;;;;;;4.20;2.80;;;;;;;18.54;33.50;100548.63;130559;1267;108677;-87
2022/05/01 13:06:57;;;;;;;2.80;2.20;;;;;;;18.65;33.62;100542.28;130597;1267;108709;-88
2022/05/01 13:10:02;;;;;;;4.10;2.60;;;;;;;18.72;33.37;100538.30;130765;1267;108867;-82
2022/05/01 13:13:08;;;;;;;3.80;2.50;;;;;;;18.75;33.52;100534.52;131462;1267;107757;-83
2022/05/01 13:16:13;;;;;;;3.40;2.50;;;;;;;18.79;33.59;100530.55;130821;1267;107823;-79
2022/05/01 13:19:21;;;;;;;3.30;2.70;;;;;;;18.77;32.30;100525.92;130497;1267;108732;-87
2022/05/01 13:22:27;;;;;;;4.40;3.10;;;;;;;18.75;33.20;100522.30;130629;1267;108778;-85
2022/05/01 13:25:32;;;;;;;6.10;2.90;;;;;;;18.76;33.03;100522.64;130915;1267;108855;-84
2022/05/01 13:28:37;;;;;;;2.70;2.40;;;;;;;18.70;32.40;100522.02;130860;1267;108170;-86
2022/05/01 13:31:46;;;;;;;3.50;2.70;;;;;;;18.69;32.33;100517.77;130704;1266;108938;-79
2022/05/01 13:34:51;;;;;;;4.60;2.90;;;;;;;18.66;31.12;100515.89;130538;1268;108782;-81
2022/05/01 13:37:57;;;;;;;3.50;2.60;;;;;;;18.70;32.33;100511.71;130663;1267;108766;-80
2022/05/01 13:47:50;;;;;;;2.90;2.50;;;;;;;18.84;32.17;100508.30;130575;1267;108656;-83
2022/05/01 13:50:56;;;;;;;3.10;2.20;;;;;;;18.95;31.64;100510.03;130795;1267;108775;-81
2022/05/01 13:54:02;;;;;;;4.70;2.80;;;;;;;18.94;30.91;100509.16;130542;1267;108799;-82
2022/05/01 13:57:09;;;;;;;5.30;3.00;;;;;;;18.93;30.77;100507.90;130539;1267;108700;-83
2022/05/01 14:00:16;;;;;;;3.40;2.60;;;;;;;18.98;31.88;100504.63;130503;1267;108785;-83
2022/05/01 14:03:22;;;;;;;4.40;2.60;;;;;;;19.08;32.08;100497.52;130489;1267;108881;-82
2022/05/01 14:06:27;;;;;;;4.00;2.60;;;;;;;19.16;32.11;100498.44;130613;1267;108935;-84
2022/05/01 14:09:34;;;;;;;5.30;2.80;;;;;;;19.26;32.30;100499.06;130522;1267;108937;-82
2022/05/01 14:12:40;;;;;;;3.30;2.70;;;;;;;19.31;31.08;100495.90;130576;1267;108875;-84
2022/05/01 14:15:45;;;;;;;3.60;2.80;;;;;;;19.28;30.78;100498.73;130493;1267;108742;-85
2022/05/01 14:18:55;;;;;;;10.60;2.70;;;;;;;19.21;31.61;100493.09;130491;1267;108684;-83
2022/05/01 14:22:00;;;;;;;4.60;2.90;;;;;;;19.20;30.75;100497.04;130492;1267;108207;-83
2022/05/01 14:25:07;;;;;;;4.60;2.60;;;;;;;19.16;31.31;100492.50;130481;1267;109799;-83
2022/05/01 14:28:14;;;;;;;3.80;3.00;;;;;;;19.18;31.36;100488.01;130463;1267;108904;-82
2022/05/01 14:31:23;;;;;;;4.60;3.00;;;;;;;19.21;31.67;100487.44;130558;1267;108980;-82
2022/05/01 14:34:38;;;;;;;5.30;3.20;;;;;;;19.24;31.60;100482.74;131609;1266;108923;-82
2022/05/01 14:37:49;;;;;;;4.50;3.90;;;;;;;19.20;30.68;100480.89;130820;1265;108633;-84
2022/05/01 14:40:59;;;;;;;5.80;2.90;;;;;;;19.15;30.86;100485.67;130809;1265;108720;-82
2022/05/01 14:44:06;;;;;;;4.50;3.20;;;;;;;19.10;31.17;100483.84;130998;1265;108793;-87